sensor_id;sensor_type;location;lat;lon;timestamp;P1;durP1;ratioP1;P2;durP2;ratioP2
31674;SDS011;18276;45.520;11.018;2023-03-01T00:01:16;34.90;;;16.92;;
31674;SDS011;18276;45.520;11.018;2023-03-01T00:03:46;38.63;;;18.33;;
31674;SDS011;18276;45.520;11.018;2023-03-01T00:06:14;36.65;;;17.58;;
31674;SDS011;18276;45.520;11.018;2023-03-01T00:08:41;46.35;;;19.52;;
31674;SDS011;18276;45.520;11.018;2023-03-01T00:11:10;46.22;;;21.08;;
31674;SDS011;18276;45.520;11.018;2023-03-01T00:13:40;39.35;;;20.08;;
31674;SDS011;18276;45.520;11.018;2023-03-01T00:16:09;50.55;;;20.60;;
31674;SDS011;18276;45.520;11.018;2023-03-01T00:18:38;44.13;;;19.88;;
31674;SDS011;18276;45.520;11.018;2023-03-01T00:21:05;34.67;;;18.67;;
31674;SDS011;18276;45.520;11.018;2023-03-01T00:23:33;40.75;;;19.15;;
31674;SDS011;18276;45.520;11.018;2023-03-01T00:26:01;33.60;;;18.23;;
31674;SDS011;18276;45.520;11.018;2023-03-01T00:28:28;37.42;;;18.25;;
31674;SDS011;18276;45.520;11.018;2023-03-01T00:30:55;34.47;;;18.33;;
31674;SDS011;18276;45.520;11.018;2023-03-01T00:33:22;42.10;;;20.35;;
31674;SDS011;18276;45.520;11.018;2023-03-01T00:35:49;38.40;;;18.70;;
31674;SDS011;18276;45.520;11.018;2023-03-01T00:38:16;32.00;;;16.50;;
31674;SDS011;18276;45.520;11.018;2023-03-01T00:40:43;36.35;;;18.88;;
31674;SDS011;18276;45.520;11.018;2023-03-01T00:43:10;41.67;;;18.83;;
31674;SDS011;18276;45.520;11.018;2023-03-01T00:45:37;36.15;;;19.48;;
31674;SDS011;18276;45.520;11.018;2023-03-01T00:48:04;41.25;;;19.88;;
31674;SDS011;18276;45.520;11.018;2023-03-01T00:50:32;39.55;;;20.70;;
31674;SDS011;18276;45.520;11.018;2023-03-01T00:52:59;37.58;;;18.33;;
31674;SDS011;18276;45.520;11.018;2023-03-01T00:55:26;37.80;;;17.88;;
31674;SDS011;18276;45.520;11.018;2023-03-01T00:57:53;37.67;;;18.40;;
31674;SDS011;18276;45.520;11.018;2023-03-01T01:00:20;33.22;;;17.05;;
31674;SDS011;18276;45.520;11.018;2023-03-01T01:02:47;36.63;;;16.48;;
31674;SDS011;18276;45.520;11.018;2023-03-01T01:05:14;36.13;;;16.88;;
31674;SDS011;18276;45.520;11.018;2023-03-01T01:07:47;39.08;;;17.38;;
31674;SDS011;18276;45.520;11.018;2023-03-01T01:10:14;40.00;;;18.50;;
31674;SDS011;18276;45.520;11.018;2023-03-01T01:12:46;44.05;;;18.77;;
31674;SDS011;18276;45.520;11.018;2023-03-01T01:15:13;43.70;;;21.23;;
31674;SDS011;18276;45.520;11.018;2023-03-01T01:17:42;39.50;;;17.67;;
31674;SDS011;18276;45.520;11.018;2023-03-01T01:20:10;40.10;;;20.00;;
31674;SDS011;18276;45.520;11.018;2023-03-01T01:22:37;42.25;;;19.15;;
31674;SDS011;18276;45.520;11.018;2023-03-01T01:25:04;35.85;;;17.23;;
31674;SDS011;18276;45.520;11.018;2023-03-01T01:27:32;39.75;;;17.02;;
31674;SDS011;18276;45.520;11.018;2023-03-01T01:29:59;31.27;;;15.88;;
31674;SDS011;18276;45.520;11.018;2023-03-01T01:32:26;36.33;;;17.13;;
31674;SDS011;18276;45.520;11.018;2023-03-01T01:34:54;39.78;;;16.98;;
31674;SDS011;18276;45.520;11.018;2023-03-01T01:37:21;39.80;;;17.23;;
31674;SDS011;18276;45.520;11.018;2023-03-01T01:39:48;33.70;;;15.27;;
31674;SDS011;18276;45.520;11.018;2023-03-01T01:42:16;33.35;;;16.20;;
31674;SDS011;18276;45.520;11.018;2023-03-01T01:44:47;35.25;;;17.10;;
31674;SDS011;18276;45.520;11.018;2023-03-01T01:47:16;36.67;;;17.52;;
31674;SDS011;18276;45.520;11.018;2023-03-01T01:49:47;34.63;;;16.65;;
31674;SDS011;18276;45.520;11.018;2023-03-01T01:52:18;34.20;;;16.33;;
31674;SDS011;18276;45.520;11.018;2023-03-01T01:54:54;34.33;;;16.33;;
31674;SDS011;18276;45.520;11.018;2023-03-01T01:57:32;31.90;;;16.63;;
31674;SDS011;18276;45.520;11.018;2023-03-01T02:00:10;41.70;;;18.08;;
31674;SDS011;18276;45.520;11.018;2023-03-01T02:02:43;37.35;;;17.25;;
31674;SDS011;18276;45.520;11.018;2023-03-01T02:06:00;34.90;;;16.85;;
31674;SDS011;18276;45.520;11.018;2023-03-01T02:08:07;36.70;;;17.20;;
31674;SDS011;18276;45.520;11.018;2023-03-01T02:10:36;36.80;;;16.67;;
31674;SDS011;18276;45.520;11.018;2023-03-01T02:13:05;37.33;;;17.27;;
31674;SDS011;18276;45.520;11.018;2023-03-01T02:15:33;33.03;;;16.63;;
31674;SDS011;18276;45.520;11.018;2023-03-01T02:18:01;33.50;;;16.92;;
31674;SDS011;18276;45.520;11.018;2023-03-01T02:20:33;34.58;;;17.83;;
31674;SDS011;18276;45.520;11.018;2023-03-01T02:23:13;40.75;;;19.27;;
31674;SDS011;18276;45.520;11.018;2023-03-01T02:30:43;37.28;;;17.48;;
31674;SDS011;18276;45.520;11.018;2023-03-01T02:33:31;36.40;;;17.20;;
31674;SDS011;18276;45.520;11.018;2023-03-01T02:36:00;37.47;;;17.00;;
31674;SDS011;18276;45.520;11.018;2023-03-01T02:38:28;39.45;;;17.67;;
31674;SDS011;18276;45.520;11.018;2023-03-01T02:40:56;33.03;;;16.33;;
31674;SDS011;18276;45.520;11.018;2023-03-01T02:43:25;34.78;;;17.38;;
31674;SDS011;18276;45.520;11.018;2023-03-01T02:46:16;37.13;;;17.35;;
31674;SDS011;18276;45.520;11.018;2023-03-01T02:56:21;36.60;;;18.27;;
31674;SDS011;18276;45.520;11.018;2023-03-01T02:58:49;41.25;;;17.13;;
31674;SDS011;18276;45.520;11.018;2023-03-01T03:01:19;39.30;;;17.65;;
31674;SDS011;18276;45.520;11.018;2023-03-01T03:03:47;35.80;;;17.70;;
31674;SDS011;18276;45.520;11.018;2023-03-01T03:06:14;38.42;;;17.40;;
31674;SDS011;18276;45.520;11.018;2023-03-01T03:08:41;39.97;;;17.00;;
31674;SDS011;18276;45.520;11.018;2023-03-01T03:11:08;40.60;;;17.40;;
31674;SDS011;18276;45.520;11.018;2023-03-01T03:13:35;37.45;;;17.10;;
31674;SDS011;18276;45.520;11.018;2023-03-01T03:16:02;39.88;;;17.65;;
31674;SDS011;18276;45.520;11.018;2023-03-01T03:18:30;32.00;;;16.83;;
31674;SDS011;18276;45.520;11.018;2023-03-01T03:20:57;33.58;;;17.38;;
31674;SDS011;18276;45.520;11.018;2023-03-01T03:23:25;40.42;;;19.70;;
31674;SDS011;18276;45.520;11.018;2023-03-01T03:25:52;39.05;;;17.50;;
31674;SDS011;18276;45.520;11.018;2023-03-01T03:28:19;40.20;;;17.55;;
31674;SDS011;18276;45.520;11.018;2023-03-01T03:30:46;40.40;;;18.23;;
31674;SDS011;18276;45.520;11.018;2023-03-01T03:33:13;32.92;;;17.08;;
31674;SDS011;18276;45.520;11.018;2023-03-01T03:35:44;39.25;;;18.08;;
31674;SDS011;18276;45.520;11.018;2023-03-01T03:38:13;42.08;;;18.30;;
31674;SDS011;18276;45.520;11.018;2023-03-01T03:40:49;39.03;;;17.20;;
31674;SDS011;18276;45.520;11.018;2023-03-01T03:43:19;37.67;;;17.40;;
31674;SDS011;18276;45.520;11.018;2023-03-01T03:45:47;40.90;;;18.55;;
31674;SDS011;18276;45.520;11.018;2023-03-01T03:48:16;36.42;;;17.95;;
31674;SDS011;18276;45.520;11.018;2023-03-01T03:50:52;36.40;;;17.40;;
31674;SDS011;18276;45.520;11.018;2023-03-01T03:53:22;41.60;;;18.17;;
31674;SDS011;18276;45.520;11.018;2023-03-01T03:55:50;38.63;;;17.90;;
31674;SDS011;18276;45.520;11.018;2023-03-01T03:58:18;40.45;;;17.77;;
31674;SDS011;18276;45.520;11.018;2023-03-01T04:00:47;34.35;;;17.27;;
31674;SDS011;18276;45.520;11.018;2023-03-01T04:03:16;39.70;;;18.52;;
31674;SDS011;18276;45.520;11.018;2023-03-01T04:05:45;38.42;;;17.58;;
31674;SDS011;18276;45.520;11.018;2023-03-01T04:08:13;38.35;;;18.50;;
31674;SDS011;18276;45.520;11.018;2023-03-01T04:10:41;36.00;;;17.88;;
31674;SDS011;18276;45.520;11.018;2023-03-01T04:13:11;43.45;;;19.15;;
31674;SDS011;18276;45.520;11.018;2023-03-01T04:15:40;37.08;;;18.02;;
31674;SDS011;18276;45.520;11.018;2023-03-01T04:18:11;38.40;;;18.40;;
31674;SDS011;18276;45.520;11.018;2023-03-01T04:20:39;36.20;;;17.35;;
31674;SDS011;18276;45.520;11.018;2023-03-01T04:23:11;38.15;;;18.60;;
31674;SDS011;18276;45.520;11.018;2023-03-01T04:25:44;45.50;;;18.80;;
31674;SDS011;18276;45.520;11.018;2023-03-01T04:30:42;34.45;;;17.35;;
31674;SDS011;18276;45.520;11.018;2023-03-01T04:33:10;42.35;;;17.02;;
31674;SDS011;18276;45.520;11.018;2023-03-01T04:35:37;41.05;;;17.05;;
31674;SDS011;18276;45.520;11.018;2023-03-01T04:38:05;39.05;;;15.98;;
31674;SDS011;18276;45.520;11.018;2023-03-01T04:40:32;36.90;;;17.15;;
31674;SDS011;18276;45.520;11.018;2023-03-01T04:43:00;35.45;;;15.95;;
31674;SDS011;18276;45.520;11.018;2023-03-01T04:45:27;38.45;;;17.45;;
31674;SDS011;18276;45.520;11.018;2023-03-01T04:47:54;40.03;;;17.95;;
31674;SDS011;18276;45.520;11.018;2023-03-01T04:50:21;35.33;;;16.65;;
31674;SDS011;18276;45.520;11.018;2023-03-01T04:52:50;32.42;;;16.30;;
31674;SDS011;18276;45.520;11.018;2023-03-01T04:55:18;37.80;;;18.13;;
31674;SDS011;18276;45.520;11.018;2023-03-01T04:57:45;35.45;;;16.45;;
31674;SDS011;18276;45.520;11.018;2023-03-01T05:00:12;33.25;;;15.95;;
31674;SDS011;18276;45.520;11.018;2023-03-01T05:02:47;36.65;;;16.85;;
31674;SDS011;18276;45.520;11.018;2023-03-01T05:05:26;31.55;;;16.00;;
31674;SDS011;18276;45.520;11.018;2023-03-01T05:07:56;35.80;;;17.90;;
31674;SDS011;18276;45.520;11.018;2023-03-01T05:10:24;39.35;;;16.70;;
31674;SDS011;18276;45.520;11.018;2023-03-01T05:12:53;33.58;;;16.52;;
31674;SDS011;18276;45.520;11.018;2023-03-01T05:15:20;37.78;;;16.58;;
31674;SDS011;18276;45.520;11.018;2023-03-01T05:17:52;36.58;;;17.13;;
31674;SDS011;18276;45.520;11.018;2023-03-01T05:20:20;36.15;;;17.02;;
31674;SDS011;18276;45.520;11.018;2023-03-01T05:22:51;30.63;;;15.80;;
31674;SDS011;18276;45.520;11.018;2023-03-01T05:25:20;35.85;;;15.80;;
31674;SDS011;18276;45.520;11.018;2023-03-01T05:27:48;34.47;;;17.20;;
31674;SDS011;18276;45.520;11.018;2023-03-01T05:30:15;31.00;;;15.88;;
31674;SDS011;18276;45.520;11.018;2023-03-01T05:32:44;32.72;;;15.65;;
31674;SDS011;18276;45.520;11.018;2023-03-01T05:35:14;36.65;;;16.20;;
31674;SDS011;18276;45.520;11.018;2023-03-01T05:37:43;39.30;;;17.35;;
31674;SDS011;18276;45.520;11.018;2023-03-01T05:40:14;36.65;;;16.35;;
31674;SDS011;18276;45.520;11.018;2023-03-01T05:42:46;33.65;;;15.63;;
31674;SDS011;18276;45.520;11.018;2023-03-01T05:45:15;35.17;;;17.23;;
31674;SDS011;18276;45.520;11.018;2023-03-01T05:47:44;37.00;;;17.52;;
31674;SDS011;18276;45.520;11.018;2023-03-01T05:50:13;33.30;;;16.38;;
31674;SDS011;18276;45.520;11.018;2023-03-01T05:52:52;32.47;;;16.17;;
31674;SDS011;18276;45.520;11.018;2023-03-01T05:55:27;33.72;;;16.80;;
31674;SDS011;18276;45.520;11.018;2023-03-01T05:57:59;38.47;;;18.85;;
31674;SDS011;18276;45.520;11.018;2023-03-01T06:00:27;31.52;;;16.25;;
31674;SDS011;18276;45.520;11.018;2023-03-01T06:02:56;34.92;;;16.38;;
31674;SDS011;18276;45.520;11.018;2023-03-01T06:05:23;33.38;;;15.88;;
31674;SDS011;18276;45.520;11.018;2023-03-01T06:07:51;33.03;;;16.50;;
31674;SDS011;18276;45.520;11.018;2023-03-01T06:10:20;34.40;;;16.02;;
31674;SDS011;18276;45.520;11.018;2023-03-01T06:12:48;40.58;;;16.85;;
31674;SDS011;18276;45.520;11.018;2023-03-01T06:15:15;35.22;;;16.52;;
31674;SDS011;18276;45.520;11.018;2023-03-01T06:17:43;33.35;;;16.55;;
31674;SDS011;18276;45.520;11.018;2023-03-01T06:22:43;36.17;;;17.52;;
31674;SDS011;18276;45.520;11.018;2023-03-01T06:25:12;35.67;;;16.42;;
31674;SDS011;18276;45.520;11.018;2023-03-01T06:27:40;34.30;;;16.73;;
31674;SDS011;18276;45.520;11.018;2023-03-01T06:30:09;36.83;;;16.73;;
31674;SDS011;18276;45.520;11.018;2023-03-01T06:32:37;32.30;;;14.95;;
31674;SDS011;18276;45.520;11.018;2023-03-01T06:35:10;36.53;;;16.85;;
31674;SDS011;18276;45.520;11.018;2023-03-01T06:37:38;38.15;;;18.23;;
31674;SDS011;18276;45.520;11.018;2023-03-01T06:40:06;34.03;;;15.20;;
31674;SDS011;18276;45.520;11.018;2023-03-01T06:42:34;36.22;;;16.73;;
31674;SDS011;18276;45.520;11.018;2023-03-01T06:45:02;35.05;;;15.57;;
31674;SDS011;18276;45.520;11.018;2023-03-01T06:47:30;37.55;;;16.33;;
31674;SDS011;18276;45.520;11.018;2023-03-01T06:49:57;38.40;;;17.95;;
31674;SDS011;18276;45.520;11.018;2023-03-01T06:52:24;36.13;;;16.45;;
31674;SDS011;18276;45.520;11.018;2023-03-01T06:54:51;37.53;;;17.00;;
31674;SDS011;18276;45.520;11.018;2023-03-01T06:57:18;40.45;;;17.27;;
31674;SDS011;18276;45.520;11.018;2023-03-01T06:59:46;40.08;;;16.83;;
31674;SDS011;18276;45.520;11.018;2023-03-01T07:02:13;39.20;;;17.80;;
31674;SDS011;18276;45.520;11.018;2023-03-01T07:04:41;45.67;;;17.45;;
31674;SDS011;18276;45.520;11.018;2023-03-01T07:07:09;39.25;;;17.88;;
31674;SDS011;18276;45.520;11.018;2023-03-01T07:09:37;37.45;;;17.08;;
31674;SDS011;18276;45.520;11.018;2023-03-01T07:12:04;39.08;;;18.02;;
31674;SDS011;18276;45.520;11.018;2023-03-01T07:14:31;42.53;;;18.80;;
31674;SDS011;18276;45.520;11.018;2023-03-01T07:16:58;39.55;;;17.13;;
31674;SDS011;18276;45.520;11.018;2023-03-01T07:19:26;43.42;;;17.13;;
31674;SDS011;18276;45.520;11.018;2023-03-01T07:21:53;36.30;;;16.80;;
31674;SDS011;18276;45.520;11.018;2023-03-01T07:24:22;43.22;;;17.80;;
31674;SDS011;18276;45.520;11.018;2023-03-01T07:26:50;34.40;;;17.13;;
31674;SDS011;18276;45.520;11.018;2023-03-01T07:29:17;44.60;;;18.60;;
31674;SDS011;18276;45.520;11.018;2023-03-01T07:31:44;35.03;;;16.23;;
31674;SDS011;18276;45.520;11.018;2023-03-01T07:34:11;30.92;;;17.23;;
31674;SDS011;18276;45.520;11.018;2023-03-01T07:36:38;36.13;;;16.80;;
31674;SDS011;18276;45.520;11.018;2023-03-01T07:39:09;36.03;;;16.38;;
31674;SDS011;18276;45.520;11.018;2023-03-01T07:41:36;32.67;;;17.13;;
31674;SDS011;18276;45.520;11.018;2023-03-01T07:44:04;33.17;;;17.83;;
31674;SDS011;18276;45.520;11.018;2023-03-01T07:46:31;36.72;;;16.80;;
31674;SDS011;18276;45.520;11.018;2023-03-01T07:48:59;42.90;;;17.40;;
31674;SDS011;18276;45.520;11.018;2023-03-01T07:51:26;35.63;;;17.30;;
31674;SDS011;18276;45.520;11.018;2023-03-01T07:53:53;37.08;;;16.67;;
31674;SDS011;18276;45.520;11.018;2023-03-01T07:56:20;37.38;;;16.67;;
31674;SDS011;18276;45.520;11.018;2023-03-01T07:58:48;29.25;;;16.30;;
31674;SDS011;18276;45.520;11.018;2023-03-01T08:01:17;30.88;;;16.42;;
31674;SDS011;18276;45.520;11.018;2023-03-01T08:03:46;33.65;;;16.70;;
31674;SDS011;18276;45.520;11.018;2023-03-01T08:06:14;34.35;;;19.05;;
31674;SDS011;18276;45.520;11.018;2023-03-01T08:08:43;36.45;;;19.10;;
31674;SDS011;18276;45.520;11.018;2023-03-01T08:11:11;38.95;;;17.98;;
31674;SDS011;18276;45.520;11.018;2023-03-01T08:13:39;33.22;;;19.15;;
31674;SDS011;18276;45.520;11.018;2023-03-01T08:16:08;43.15;;;18.67;;
31674;SDS011;18276;45.520;11.018;2023-03-01T08:18:37;31.13;;;18.35;;
31674;SDS011;18276;45.520;11.018;2023-03-01T08:21:09;31.02;;;16.25;;
31674;SDS011;18276;45.520;11.018;2023-03-01T08:23:41;31.98;;;17.15;;
31674;SDS011;18276;45.520;11.018;2023-03-01T08:28:38;33.25;;;17.52;;
31674;SDS011;18276;45.520;11.018;2023-03-01T08:33:47;28.27;;;16.52;;
31674;SDS011;18276;45.520;11.018;2023-03-01T08:36:24;26.17;;;14.68;;
31674;SDS011;18276;45.520;11.018;2023-03-01T08:38:53;27.73;;;15.82;;
31674;SDS011;18276;45.520;11.018;2023-03-01T08:41:21;25.27;;;15.50;;
31674;SDS011;18276;45.520;11.018;2023-03-01T08:43:48;24.55;;;16.17;;
31674;SDS011;18276;45.520;11.018;2023-03-01T08:46:15;26.70;;;17.20;;
31674;SDS011;18276;45.520;11.018;2023-03-01T08:48:42;28.27;;;16.65;;
31674;SDS011;18276;45.520;11.018;2023-03-01T08:51:10;29.35;;;16.73;;
31674;SDS011;18276;45.520;11.018;2023-03-01T08:53:38;30.92;;;17.13;;
31674;SDS011;18276;45.520;11.018;2023-03-01T08:56:06;31.60;;;18.85;;
31674;SDS011;18276;45.520;11.018;2023-03-01T08:58:34;36.03;;;20.25;;
31674;SDS011;18276;45.520;11.018;2023-03-01T09:01:06;39.55;;;20.85;;
31674;SDS011;18276;45.520;11.018;2023-03-01T09:03:37;35.90;;;20.33;;
31674;SDS011;18276;45.520;11.018;2023-03-01T09:06:06;38.13;;;21.48;;
31674;SDS011;18276;45.520;11.018;2023-03-01T09:08:34;38.08;;;21.08;;
31674;SDS011;18276;45.520;11.018;2023-03-01T09:11:06;32.25;;;19.23;;
31674;SDS011;18276;45.520;11.018;2023-03-01T09:13:34;38.45;;;20.33;;
31674;SDS011;18276;45.520;11.018;2023-03-01T09:16:02;34.30;;;18.08;;
31674;SDS011;18276;45.520;11.018;2023-03-01T09:18:32;30.90;;;17.25;;
31674;SDS011;18276;45.520;11.018;2023-03-01T09:21:00;32.92;;;17.55;;
31674;SDS011;18276;45.520;11.018;2023-03-01T09:23:36;33.40;;;18.25;;
31674;SDS011;18276;45.520;11.018;2023-03-01T09:26:06;27.67;;;16.33;;
31674;SDS011;18276;45.520;11.018;2023-03-01T09:28:37;30.92;;;16.70;;
31674;SDS011;18276;45.520;11.018;2023-03-01T09:31:07;31.85;;;17.00;;
31674;SDS011;18276;45.520;11.018;2023-03-01T09:33:34;31.60;;;16.35;;
31674;SDS011;18276;45.520;11.018;2023-03-01T09:36:06;24.25;;;14.35;;
31674;SDS011;18276;45.520;11.018;2023-03-01T09:38:34;24.80;;;15.25;;
31674;SDS011;18276;45.520;11.018;2023-03-01T09:41:01;28.42;;;14.35;;
31674;SDS011;18276;45.520;11.018;2023-03-01T09:46:22;29.95;;;15.38;;
31674;SDS011;18276;45.520;11.018;2023-03-01T09:51:24;34.05;;;15.18;;
31674;SDS011;18276;45.520;11.018;2023-03-01T09:53:56;30.40;;;14.35;;
31674;SDS011;18276;45.520;11.018;2023-03-01T09:56:36;25.60;;;14.18;;
31674;SDS011;18276;45.520;11.018;2023-03-01T09:59:27;27.73;;;14.93;;
31674;SDS011;18276;45.520;11.018;2023-03-01T10:04:48;26.10;;;14.77;;
31674;SDS011;18276;45.520;11.018;2023-03-01T10:09:50;24.17;;;14.30;;
31674;SDS011;18276;45.520;11.018;2023-03-01T10:12:18;26.63;;;14.43;;
31674;SDS011;18276;45.520;11.018;2023-03-01T10:20:24;23.15;;;14.00;;
31674;SDS011;18276;45.520;11.018;2023-03-01T10:22:53;24.95;;;13.35;;
31674;SDS011;18276;45.520;11.018;2023-03-01T10:25:30;25.25;;;13.13;;
31674;SDS011;18276;45.520;11.018;2023-03-01T10:28:44;32.30;;;13.68;;
31674;SDS011;18276;45.520;11.018;2023-03-01T10:30:56;25.35;;;13.45;;
31674;SDS011;18276;45.520;11.018;2023-03-01T10:33:27;26.38;;;13.95;;
31674;SDS011;18276;45.520;11.018;2023-03-01T10:35:58;28.08;;;14.10;;
31674;SDS011;18276;45.520;11.018;2023-03-01T10:38:25;30.23;;;13.73;;
31674;SDS011;18276;45.520;11.018;2023-03-01T10:40:55;24.30;;;12.90;;
31674;SDS011;18276;45.520;11.018;2023-03-01T10:43:27;27.13;;;13.68;;
31674;SDS011;18276;45.520;11.018;2023-03-01T10:46:28;24.95;;;13.70;;
31674;SDS011;18276;45.520;11.018;2023-03-01T10:49:10;27.20;;;14.20;;
31674;SDS011;18276;45.520;11.018;2023-03-01T10:51:50;30.15;;;15.52;;
31674;SDS011;18276;45.520;11.018;2023-03-01T10:56:56;23.13;;;13.85;;
31674;SDS011;18276;45.520;11.018;2023-03-01T11:04:56;25.83;;;13.35;;
31674;SDS011;18276;45.520;11.018;2023-03-01T11:07:28;20.92;;;12.40;;
31674;SDS011;18276;45.520;11.018;2023-03-01T11:09:56;21.90;;;13.25;;
31674;SDS011;18276;45.520;11.018;2023-03-01T11:12:23;22.73;;;12.75;;
31674;SDS011;18276;45.520;11.018;2023-03-01T11:14:52;24.88;;;12.80;;
31674;SDS011;18276;45.520;11.018;2023-03-01T11:17:22;35.50;;;14.18;;
31674;SDS011;18276;45.520;11.018;2023-03-01T11:22:41;22.27;;;12.73;;
31674;SDS011;18276;45.520;11.018;2023-03-01T11:25:26;21.88;;;11.43;;
31674;SDS011;18276;45.520;11.018;2023-03-01T11:28:01;21.45;;;12.38;;
31674;SDS011;18276;45.520;11.018;2023-03-01T11:39:02;17.08;;;10.65;;
31674;SDS011;18276;45.520;11.018;2023-03-01T11:41:51;21.83;;;12.13;;
31674;SDS011;18276;45.520;11.018;2023-03-01T11:44:43;21.05;;;12.30;;
31674;SDS011;18276;45.520;11.018;2023-03-01T11:50:03;22.98;;;12.95;;
31674;SDS011;18276;45.520;11.018;2023-03-01T12:15:03;22.50;;;13.18;;
31674;SDS011;18276;45.520;11.018;2023-03-01T12:31:16;18.08;;;9.07;;
31674;SDS011;18276;45.520;11.018;2023-03-01T12:51:11;19.63;;;8.38;;
31674;SDS011;18276;45.520;11.018;2023-03-01T12:53:48;15.82;;;8.35;;
31674;SDS011;18276;45.520;11.018;2023-03-01T12:56:18;12.57;;;8.52;;
31674;SDS011;18276;45.520;11.018;2023-03-01T13:07:21;20.30;;;9.75;;
31674;SDS011;18276;45.520;11.018;2023-03-01T13:10:06;15.18;;;8.77;;
31674;SDS011;18276;45.520;11.018;2023-03-01T13:17:54;16.05;;;8.30;;
31674;SDS011;18276;45.520;11.018;2023-03-01T13:23:10;13.38;;;8.25;;
31674;SDS011;18276;45.520;11.018;2023-03-01T13:31:03;20.50;;;7.97;;
31674;SDS011;18276;45.520;11.018;2023-03-01T13:36:00;17.20;;;9.02;;
31674;SDS011;18276;45.520;11.018;2023-03-01T13:38:47;14.23;;;7.25;;
31674;SDS011;18276;45.520;11.018;2023-03-01T13:44:51;14.18;;;7.65;;
31674;SDS011;18276;45.520;11.018;2023-03-01T13:46:59;19.90;;;8.80;;
31674;SDS011;18276;45.520;11.018;2023-03-01T13:49:40;16.60;;;7.97;;
31674;SDS011;18276;45.520;11.018;2023-03-01T13:52:30;12.68;;;6.50;;
31674;SDS011;18276;45.520;11.018;2023-03-01T13:55:14;16.67;;;6.47;;
31674;SDS011;18276;45.520;11.018;2023-03-01T13:57:49;15.55;;;6.50;;
31674;SDS011;18276;45.520;11.018;2023-03-01T14:03:26;16.35;;;6.53;;
31674;SDS011;18276;45.520;11.018;2023-03-01T14:08:41;14.70;;;5.82;;
31674;SDS011;18276;45.520;11.018;2023-03-01T14:19:33;15.93;;;6.40;;
31674;SDS011;18276;45.520;11.018;2023-03-01T14:24:53;18.05;;;8.10;;
31674;SDS011;18276;45.520;11.018;2023-03-01T14:27:41;14.63;;;7.05;;
31674;SDS011;18276;45.520;11.018;2023-03-01T14:30:19;19.75;;;7.10;;
31674;SDS011;18276;45.520;11.018;2023-03-01T14:32:54;22.90;;;7.35;;
31674;SDS011;18276;45.520;11.018;2023-03-01T14:35:26;18.77;;;8.00;;
31674;SDS011;18276;45.520;11.018;2023-03-01T14:37:56;15.05;;;7.07;;
31674;SDS011;18276;45.520;11.018;2023-03-01T14:40:27;17.98;;;7.50;;
31674;SDS011;18276;45.520;11.018;2023-03-01T14:42:57;23.30;;;7.53;;
31674;SDS011;18276;45.520;11.018;2023-03-01T14:45:28;17.00;;;7.95;;
31674;SDS011;18276;45.520;11.018;2023-03-01T14:48:00;15.68;;;8.18;;
31674;SDS011;18276;45.520;11.018;2023-03-01T14:50:39;14.45;;;7.82;;
31674;SDS011;18276;45.520;11.018;2023-03-01T14:53:15;17.17;;;7.78;;
31674;SDS011;18276;45.520;11.018;2023-03-01T14:55:46;17.65;;;8.30;;
31674;SDS011;18276;45.520;11.018;2023-03-01T14:58:28;18.53;;;7.87;;
31674;SDS011;18276;45.520;11.018;2023-03-01T15:01:02;23.00;;;8.48;;
31674;SDS011;18276;45.520;11.018;2023-03-01T15:06:06;16.38;;;8.93;;
31674;SDS011;18276;45.520;11.018;2023-03-01T15:08:35;15.38;;;8.13;;
31674;SDS011;18276;45.520;11.018;2023-03-01T15:11:04;18.98;;;8.15;;
31674;SDS011;18276;45.520;11.018;2023-03-01T15:13:53;19.65;;;8.40;;
31674;SDS011;18276;45.520;11.018;2023-03-01T15:16:24;20.70;;;7.97;;
31674;SDS011;18276;45.520;11.018;2023-03-01T15:18:56;15.75;;;8.63;;
31674;SDS011;18276;45.520;11.018;2023-03-01T15:21:37;17.33;;;8.02;;
31674;SDS011;18276;45.520;11.018;2023-03-01T15:24:06;16.02;;;8.70;;
31674;SDS011;18276;45.520;11.018;2023-03-01T15:27:00;20.60;;;8.38;;
31674;SDS011;18276;45.520;11.018;2023-03-01T15:29:33;21.50;;;8.73;;
31674;SDS011;18276;45.520;11.018;2023-03-01T15:32:22;22.42;;;7.05;;
31674;SDS011;18276;45.520;11.018;2023-03-01T15:34:57;14.85;;;7.18;;
31674;SDS011;18276;45.520;11.018;2023-03-01T15:43:04;22.38;;;13.80;;
31674;SDS011;18276;45.520;11.018;2023-03-01T15:45:33;19.83;;;7.75;;
31674;SDS011;18276;45.520;11.018;2023-03-01T15:48:01;18.30;;;9.25;;
31674;SDS011;18276;45.520;11.018;2023-03-01T15:50:41;23.65;;;11.13;;
31674;SDS011;18276;45.520;11.018;2023-03-01T15:53:13;22.40;;;10.10;;
31674;SDS011;18276;45.520;11.018;2023-03-01T15:55:41;21.20;;;8.65;;
31674;SDS011;18276;45.520;11.018;2023-03-01T15:58:16;17.83;;;7.57;;
31674;SDS011;18276;45.520;11.018;2023-03-01T16:00:48;18.00;;;7.13;;
31674;SDS011;18276;45.520;11.018;2023-03-01T16:03:27;16.95;;;8.13;;
31674;SDS011;18276;45.520;11.018;2023-03-01T16:05:54;17.05;;;8.35;;
31674;SDS011;18276;45.520;11.018;2023-03-01T16:08:21;18.17;;;9.23;;
31674;SDS011;18276;45.520;11.018;2023-03-01T16:10:48;20.60;;;9.02;;
31674;SDS011;18276;45.520;11.018;2023-03-01T16:13:17;22.70;;;9.85;;
31674;SDS011;18276;45.520;11.018;2023-03-01T16:15:45;24.58;;;11.45;;
31674;SDS011;18276;45.520;11.018;2023-03-01T16:18:15;25.45;;;13.10;;
31674;SDS011;18276;45.520;11.018;2023-03-01T16:20:43;22.02;;;9.68;;
31674;SDS011;18276;45.520;11.018;2023-03-01T16:23:10;20.73;;;9.48;;
31674;SDS011;18276;45.520;11.018;2023-03-01T16:25:38;19.75;;;7.32;;
31674;SDS011;18276;45.520;11.018;2023-03-01T16:28:05;20.10;;;9.00;;
31674;SDS011;18276;45.520;11.018;2023-03-01T16:30:39;21.85;;;10.57;;
31674;SDS011;18276;45.520;11.018;2023-03-01T16:33:06;21.65;;;11.05;;
31674;SDS011;18276;45.520;11.018;2023-03-01T16:35:55;21.10;;;11.15;;
31674;SDS011;18276;45.520;11.018;2023-03-01T16:38:22;24.63;;;9.93;;
31674;SDS011;18276;45.520;11.018;2023-03-01T16:40:50;21.20;;;10.63;;
31674;SDS011;18276;45.520;11.018;2023-03-01T16:43:18;16.52;;;10.00;;
31674;SDS011;18276;45.520;11.018;2023-03-01T16:45:45;19.25;;;10.25;;
31674;SDS011;18276;45.520;11.018;2023-03-01T16:48:13;22.35;;;11.05;;
31674;SDS011;18276;45.520;11.018;2023-03-01T16:50:40;21.63;;;13.68;;
31674;SDS011;18276;45.520;11.018;2023-03-01T16:53:07;19.77;;;8.77;;
31674;SDS011;18276;45.520;11.018;2023-03-01T16:55:34;16.67;;;8.27;;
31674;SDS011;18276;45.520;11.018;2023-03-01T16:58:01;16.20;;;9.05;;
31674;SDS011;18276;45.520;11.018;2023-03-01T17:00:28;16.48;;;9.10;;
31674;SDS011;18276;45.520;11.018;2023-03-01T17:02:55;18.38;;;9.50;;
31674;SDS011;18276;45.520;11.018;2023-03-01T17:05:23;19.85;;;9.57;;
31674;SDS011;18276;45.520;11.018;2023-03-01T17:07:51;19.00;;;9.48;;
31674;SDS011;18276;45.520;11.018;2023-03-01T17:10:20;18.65;;;9.70;;
31674;SDS011;18276;45.520;11.018;2023-03-01T17:12:48;18.73;;;9.63;;
31674;SDS011;18276;45.520;11.018;2023-03-01T17:15:16;17.63;;;10.68;;
31674;SDS011;18276;45.520;11.018;2023-03-01T17:17:43;19.20;;;10.00;;